Time;durP1;ratioP1;P1;durP2;ratioP2;P2;SDS_P1;SDS_P2;PMS_P1;PMS_P2;Temp;Humidity;BMP_temperature;BMP_pressure;BME280_temperature;BME280_humidity;BME280_pressure;Samples;Min_cycle;Max_cycle;Signal;HPM_P1;HPM_P2
2024/03/11 00:02:27;;;;;;;1.60;1.50;;;;;;;8.01;71.11;94651.22;4988286;28;20185;-70
2024/03/11 00:04:54;;;;;;;1.37;1.27;;;;;;;8.00;71.14;94645.13;4992710;28;20204;-70
2024/03/11 00:07:20;;;;;;;1.27;1.17;;;;;;;8.09;71.13;94651.56;4997117;28;20495;-71
2024/03/11 00:09:45;;;;;;;1.40;1.30;;;;;;;7.97;70.79;94653.16;5003919;28;20415;-71
2024/03/11 00:12:11;;;;;;;1.80;1.50;;;;;;;7.93;71.64;94649.03;5003820;28;20177;-71
2024/03/11 00:14:39;;;;;;;1.30;1.10;;;;;;;8.08;70.31;94649.91;5003170;28;20189;-71
2024/03/11 00:17:06;;;;;;;1.63;1.40;;;;;;;8.01;71.36;94653.81;5000261;28;20424;-70
2024/03/11 00:19:31;;;;;;;1.90;1.30;;;;;;;7.98;71.18;94652.22;4988996;28;20412;-71
2024/03/11 00:22:00;;;;;;;2.37;1.73;;;;;;;7.94;70.92;94662.97;4986903;28;20929;-71
2024/03/11 00:24:26;;;;;;;2.13;1.23;;;;;;;7.70;71.91;94657.44;4985282;28;20231;-70
2024/03/11 00:26:52;;;;;;;1.60;1.50;;;;;;;7.77;71.46;94653.53;4985518;28;20495;-70
2024/03/11 00:29:18;;;;;;;2.13;1.20;;;;;;;7.76;71.99;94662.31;4985803;28;20607;-71
2024/03/11 00:31:45;;;;;;;1.60;1.40;;;;;;;7.84;71.18;94660.91;4985744;28;20523;-71
2024/03/11 00:34:11;;;;;;;1.40;1.30;;;;;;;7.79;71.53;94662.13;4986019;28;20412;-72
2024/03/11 00:36:38;;;;;;;1.50;1.40;;;;;;;7.84;71.49;94655.69;4986733;28;20499;-70
2024/03/11 00:39:03;;;;;;;1.73;1.40;;;;;;;7.91;70.66;94660.53;4990003;28;20644;-71
2024/03/11 00:41:32;;;;;;;1.73;1.40;;;;;;;7.88;71.23;94658.09;4989740;28;20419;-70
2024/03/11 00:43:58;;;;;;;1.53;1.43;;;;;;;7.72;71.92;94659.03;4991205;28;20283;-70
2024/03/11 00:46:24;;;;;;;1.87;1.40;;;;;;;7.79;71.92;94667.34;4989862;28;20475;-71
2024/03/11 00:48:49;;;;;;;2.13;1.80;;;;;;;7.81;71.64;94663.69;4988874;28;20415;-71
2024/03/11 00:51:15;;;;;;;2.37;1.70;;;;;;;7.70;72.24;94660.91;4988983;28;20231;-71
2024/03/11 00:53:41;;;;;;;2.03;1.50;;;;;;;7.59;72.23;94672.00;4988592;28;20177;-72
2024/03/11 00:56:07;;;;;;;1.60;1.50;;;;;;;7.74;72.30;94672.00;4988771;28;20432;-71
2024/03/11 00:58:37;;;;;;;2.40;1.83;;;;;;;7.65;71.84;94673.38;4988915;28;20169;-70
2024/03/11 01:01:05;;;;;;;1.80;1.70;;;;;;;7.58;72.52;94674.69;4988460;28;20413;-70
2024/03/11 01:03:31;;;;;;;1.77;1.50;;;;;;;7.67;72.35;94683.75;4989019;28;20412;-72
2024/03/11 01:05:57;;;;;;;1.97;1.40;;;;;;;7.55;72.47;94680.09;4988927;28;20432;-70
2024/03/11 01:08:23;;;;;;;2.90;1.80;;;;;;;7.06;74.47;94691.63;4989476;28;20438;-71
2024/03/11 01:10:49;;;;;;;2.00;1.90;;;;;;;7.07;74.67;94684.66;4989300;28;20169;-71
2024/03/11 01:13:14;;;;;;;2.53;1.83;;;;;;;7.14;73.71;94693.81;4988931;28;20973;-70
2024/03/11 01:15:39;;;;;;;3.10;1.60;;;;;;;7.40;73.47;94697.50;4988952;28;20227;-71
2024/03/11 01:18:05;;;;;;;2.27;1.90;;;;;;;7.35;72.84;94694.34;4989029;28;20173;-71
2024/03/11 01:20:30;;;;;;;3.23;2.03;;;;;;;7.52;72.36;94695.94;4988870;28;20684;-70
2024/03/11 01:22:56;;;;;;;2.50;2.10;;;;;;;7.58;72.22;94700.78;4988653;28;20184;-71
2024/03/11 01:25:21;;;;;;;2.30;2.10;;;;;;;7.43;71.97;94705.16;4989504;28;20189;-70
2024/03/11 01:27:46;;;;;;;2.67;2.47;;;;;;;7.25;73.54;94708.81;4988566;28;20205;-70
2024/03/11 01:30:14;;;;;;;2.40;2.20;;;;;;;7.43;72.73;94715.59;4988189;28;20168;-70
2024/03/11 01:32:41;;;;;;;3.37;2.70;;;;;;;7.46;72.21;94717.19;4987981;28;20177;-70
2024/03/11 01:35:07;;;;;;;2.90;2.60;;;;;;;7.49;72.55;94717.00;4988353;28;20447;-70
2024/03/11 01:37:33;;;;;;;2.80;2.60;;;;;;;7.32;72.28;94716.22;4988395;28;20414;-71
2024/03/11 01:39:58;;;;;;;2.40;2.20;;;;;;;7.23;73.47;94719.38;4988205;28;20412;-71
2024/03/11 01:42:23;;;;;;;2.67;2.47;;;;;;;7.34;73.03;94723.94;4988085;28;20188;-70
2024/03/11 01:44:51;;;;;;;2.30;2.10;;;;;;;7.51;72.47;94734.28;4988544;28;20193;-71
2024/03/11 01:47:21;;;;;;;3.03;2.40;;;;;;;7.43;72.69;94739.06;4987438;28;20197;-71
2024/03/11 01:49:52;;;;;;;2.60;2.40;;;;;;;7.38;72.68;94738.50;4988108;28;21062;-72
2024/03/11 01:52:23;;;;;;;3.87;2.90;;;;;;;7.27;72.08;94749.56;4987813;28;20423;-71
2024/03/11 01:54:49;;;;;;;2.80;2.60;;;;;;;7.28;72.42;94743.44;4987723;28;20566;-71
2024/03/11 01:57:16;;;;;;;2.60;2.40;;;;;;;7.30;72.22;94741.56;4988124;28;20919;-70
2024/03/11 01:59:42;;;;;;;2.73;2.30;;;;;;;7.30;72.60;94741.56;4987825;28;20400;-71
2024/03/11 02:02:08;;;;;;;2.60;2.40;;;;;;;7.15;72.45;94745.88;4987868;28;20528;-70
2024/03/11 02:04:38;;;;;;;2.90;2.57;;;;;;;7.25;71.61;94738.38;4987981;28;20316;-70
2024/03/11 02:07:05;;;;;;;3.17;2.53;;;;;;;6.89;73.56;94749.13;4987755;28;20702;-71
2024/03/11 02:09:31;;;;;;;3.50;3.20;;;;;;;6.99;72.76;94756.34;4987819;28;20954;-70
2024/03/11 02:11:56;;;;;;;2.90;2.60;;;;;;;6.96;72.72;94746.06;4987407;28;20416;-71
2024/03/11 02:14:22;;;;;;;3.27;2.77;;;;;;;6.83;74.01;94760.75;4987722;28;20180;-70
2024/03/11 02:16:48;;;;;;;2.90;2.60;;;;;;;6.29;75.51;94774.09;4987554;28;20169;-70
2024/03/11 02:19:17;;;;;;;4.00;3.60;;;;;;;6.36;75.34;94770.22;4987884;28;20183;-70
2024/03/11 02:21:46;;;;;;;2.93;2.73;;;;;;;6.67;74.85;94767.72;4987729;28;20177;-71
2024/03/11 02:24:15;;;;;;;2.80;2.60;;;;;;;6.71;73.92;94764.88;4987686;28;20943;-71
2024/03/11 02:26:53;;;;;;;4.70;3.00;;;;;;;6.61;74.57;94770.66;4987705;28;20530;-71
2024/03/11 02:29:19;;;;;;;3.27;2.80;;;;;;;6.78;74.38;94768.00;4987647;28;20922;-70
2024/03/11 02:31:45;;;;;;;3.23;2.93;;;;;;;6.86;73.46;94773.59;4987518;28;20475;-70
2024/03/11 02:34:11;;;;;;;2.97;2.67;;;;;;;6.76;73.89;94775.06;4987324;28;20185;-70
2024/03/11 02:36:40;;;;;;;2.60;2.40;;;;;;;6.79;73.85;94777.47;4987677;28;20789;-71
2024/03/11 02:39:07;;;;;;;2.87;2.63;;;;;;;6.62;73.79;94777.56;4987838;28;21129;-71
2024/03/11 02:41:35;;;;;;;3.70;3.40;;;;;;;6.46;74.57;94777.56;4988421;28;20528;-70
2024/03/11 02:44:00;;;;;;;3.10;2.80;;;;;;;6.23;75.93;94774.41;4990096;28;20420;-69
2024/03/11 02:46:25;;;;;;;3.50;3.20;;;;;;;6.51;74.70;94778.13;4992144;28;20458;-69
2024/03/11 02:48:51;;;;;;;3.37;2.83;;;;;;;6.34;75.02;94781.66;4989757;28;20204;-70
2024/03/11 02:51:16;;;;;;;3.40;3.10;;;;;;;6.55;74.28;94780.50;4990182;28;20185;-70
2024/03/11 02:53:41;;;;;;;4.60;4.20;;;;;;;6.62;73.98;94777.56;4987088;28;20181;-71
2024/03/11 02:56:10;;;;;;;3.93;3.53;;;;;;;6.66;73.46;94786.88;4986989;28;20287;-71
2024/03/11 02:58:37;;;;;;;4.20;3.80;;;;;;;6.69;72.96;94789.34;4986855;28;20173;-70
2024/03/11 03:01:02;;;;;;;4.60;4.20;;;;;;;6.79;72.98;94793.13;4987105;28;20423;-71
2024/03/11 03:03:28;;;;;;;4.30;3.90;;;;;;;6.57;73.73;94803.88;4987030;28;20519;-71
2024/03/11 03:05:53;;;;;;;4.60;4.20;;;;;;;6.64;73.12;94802.63;4987952;28;20200;-71
2024/03/11 03:08:20;;;;;;;5.23;4.43;;;;;;;6.65;73.39;94801.69;5003603;28;20262;-71
2024/03/11 03:10:45;;;;;;;4.60;4.10;;;;;;;6.57;73.39;94809.09;5006391;28;20859;-71
2024/03/11 03:13:11;;;;;;;4.63;4.20;;;;;;;6.64;73.23;94809.56;5003756;28;20442;-70
2024/03/11 03:15:36;;;;;;;4.83;4.40;;;;;;;6.65;72.78;94813.88;4988499;28;20280;-71
2024/03/11 03:18:02;;;;;;;4.50;4.10;;;;;;;6.67;73.20;94815.47;4985185;28;20276;-70
2024/03/11 03:20:28;;;;;;;4.87;4.37;;;;;;;6.59;72.98;94815.06;4987775;28;20192;-70
2024/03/11 03:22:53;;;;;;;5.20;4.60;;;;;;;6.78;72.69;94812.31;4985754;28;20443;-70
2024/03/11 03:25:19;;;;;;;6.43;4.50;;;;;;;6.60;73.00;94816.75;4979428;28;20570;-71
2024/03/11 03:27:46;;;;;;;4.87;4.40;;;;;;;6.30;74.72;94807.00;4977233;28;20204;-71
2024/03/11 03:30:12;;;;;;;5.90;5.30;;;;;;;6.43;74.19;94803.78;4984581;28;20551;-70
2024/03/11 03:32:37;;;;;;;4.57;4.17;;;;;;;6.42;74.01;94810.72;4986583;28;20515;-71
2024/03/11 03:35:05;;;;;;;4.97;4.50;;;;;;;6.38;74.40;94800.56;4993906;28;20214;-71
2024/03/11 03:37:30;;;;;;;5.90;5.40;;;;;;;6.54;73.40;94797.06;4995904;28;20593;-72
2024/03/11 03:39:56;;;;;;;6.30;5.70;;;;;;;6.54;73.29;94806.63;4995650;28;20440;-71
2024/03/11 03:42:22;;;;;;;15.83;6.53;;;;;;;6.48;73.69;94805.22;4990710;28;20177;-72
2024/03/11 03:44:47;;;;;;;5.77;5.17;;;;;;;6.52;73.53;94808.47;4994473;28;20232;-70
2024/03/11 03:47:14;;;;;;;6.17;4.77;;;;;;;6.66;73.17;94810.34;4989917;28;20213;-69
2024/03/11 03:49:39;;;;;;;5.70;4.70;;;;;;;6.59;73.30;94820.28;4977913;28;20187;-71
2024/03/11 03:52:05;;;;;;;7.47;5.03;;;;;;;6.58;73.36;94819.41;4984390;28;21008;-70
2024/03/11 03:54:30;;;;;;;5.63;5.13;;;;;;;6.61;72.86;94815.81;4985093;28;20205;-70
2024/03/11 03:56:56;;;;;;;6.00;5.40;;;;;;;6.61;73.15;94814.97;4969907;28;20251;-70
2024/03/11 03:59:22;;;;;;;5.80;5.20;;;;;;;6.56;73.29;94817.81;4985427;28;20177;-69
2024/03/11 04:01:47;;;;;;;6.60;5.90;;;;;;;6.43;73.77;94820.25;4984715;28;20260;-69
2024/03/11 04:04:13;;;;;;;6.63;5.90;;;;;;;6.49;73.54;94830.31;4985511;28;20185;-70
2024/03/11 04:06:38;;;;;;;5.93;5.40;;;;;;;6.47;74.17;94827.00;4984023;28;20208;-71
2024/03/11 04:09:08;;;;;;;6.40;5.80;;;;;;;6.40;74.15;94838.63;4982545;28;20828;-71
2024/03/11 04:11:35;;;;;;;8.10;6.93;;;;;;;6.36;73.96;94837.13;4985227;28;20245;-71
2024/03/11 04:14:01;;;;;;;8.33;7.50;;;;;;;6.37;73.99;94833.59;4988308;28;20562;-71
2024/03/11 04:16:28;;;;;;;9.93;8.30;;;;;;;6.44;73.81;94829.75;4983200;28;20503;-71
2024/03/11 04:18:54;;;;;;;9.17;7.60;;;;;;;6.43;74.42;94830.66;4984667;28;20280;-71
2024/03/11 04:21:20;;;;;;;10.50;9.40;;;;;;;6.56;73.53;94830.84;4988978;28;20440;-71
2024/03/11 04:23:46;;;;;;;9.53;8.03;;;;;;;6.48;73.60;94836.47;4987949;28;21309;-71
2024/03/11 04:26:12;;;;;;;10.77;9.40;;;;;;;6.65;73.29;94847.78;4988565;28;20465;-69
2024/03/11 04:28:37;;;;;;;9.53;8.63;;;;;;;6.63;73.04;94841.78;4988413;28;20259;-70
2024/03/11 04:31:04;;;;;;;9.93;8.93;;;;;;;6.69;72.53;94846.69;4971136;28;20526;-70
2024/03/11 04:33:30;;;;;;;9.77;8.83;;;;;;;6.63;72.75;94842.63;4987883;28;20188;-71
2024/03/11 04:35:56;;;;;;;10.13;6.97;;;;;;;6.66;72.81;94846.84;4987693;28;20459;-70
2024/03/11 04:38:21;;;;;;;8.17;6.67;;;;;;;6.69;72.78;94846.69;4985920;28;20176;-70
2024/03/11 04:40:47;;;;;;;7.90;7.10;;;;;;;6.53;73.07;94838.84;4988532;28;20185;-71
2024/03/11 04:43:13;;;;;;;7.03;5.97;;;;;;;6.66;72.93;94847.69;4988519;28;20185;-70
2024/03/11 04:45:39;;;;;;;7.10;6.50;;;;;;;6.66;72.32;94849.44;4987410;28;20208;-70
2024/03/11 04:48:06;;;;;;;6.37;5.77;;;;;;;6.65;72.71;94860.81;4988078;28;21144;-70
2024/03/11 04:50:33;;;;;;;6.80;6.20;;;;;;;6.70;71.79;94858.78;4989208;28;20946;-71
2024/03/11 04:53:04;;;;;;;6.60;6.00;;;;;;;6.64;72.30;94857.38;4988424;28;20440;-70
2024/03/11 04:55:30;;;;;;;7.63;6.30;;;;;;;6.67;71.95;94862.41;4985586;28;21021;-70
2024/03/11 04:57:56;;;;;;;8.40;5.90;;;;;;;6.56;72.58;94869.94;4983050;28;20928;-72
2024/03/11 05:00:26;;;;;;;7.17;6.33;;;;;;;6.64;71.79;94869.53;4983329;28;20438;-70
2024/03/11 05:02:52;;;;;;;6.63;5.80;;;;;;;6.63;72.03;94868.69;4982600;28;20439;-71
2024/03/11 05:05:18;;;;;;;8.10;7.30;;;;;;;6.56;72.03;94872.56;4970323;28;20505;-70
2024/03/11 05:07:43;;;;;;;5.97;5.47;;;;;;;6.55;72.11;94869.09;4986290;28;20604;-71
2024/03/11 05:10:09;;;;;;;8.00;6.80;;;;;;;6.51;72.57;94872.78;4988076;28;20184;-71
2024/03/11 05:12:35;;;;;;;7.70;6.97;;;;;;;6.65;71.46;94869.47;4986996;28;20185;-70
2024/03/11 05:15:01;;;;;;;5.80;5.30;;;;;;;6.52;72.12;94876.22;4987717;28;20205;-69
2024/03/11 05:17:26;;;;;;;7.30;6.60;;;;;;;6.48;71.98;94883.38;4987158;28;20515;-71
2024/03/11 05:19:52;;;;;;;7.43;6.73;;;;;;;6.34;72.67;94885.88;4983728;28;20188;-69
2024/03/11 05:22:18;;;;;;;6.70;6.00;;;;;;;6.38;72.67;94887.41;4998921;28;20180;-71
2024/03/11 05:24:44;;;;;;;7.17;6.43;;;;;;;6.25;72.55;94884.56;5003203;28;20197;-71
2024/03/11 05:27:09;;;;;;;9.10;7.10;;;;;;;6.26;72.75;94895.81;5005270;28;20260;-71
2024/03/11 05:29:35;;;;;;;8.97;7.23;;;;;;;6.08;73.29;94900.22;5006682;28;20177;-73
2024/03/11 05:32:02;;;;;;;8.00;7.20;;;;;;;6.09;73.41;94897.50;5004456;28;20185;-70
2024/03/11 05:34:27;;;;;;;10.33;7.47;;;;;;;5.90;73.98;94901.94;4988882;28;20181;-71
2024/03/11 05:36:53;;;;;;;8.67;7.83;;;;;;;5.95;74.11;94913.00;4987969;28;20447;-70
2024/03/11 05:39:19;;;;;;;9.13;7.67;;;;;;;5.89;74.25;94914.13;4988871;28;20255;-71
2024/03/11 05:41:45;;;;;;;9.37;7.87;;;;;;;5.98;73.77;94918.06;4986920;28;20183;-70
2024/03/11 05:44:10;;;;;;;9.40;7.53;;;;;;;6.01;74.24;94928.31;4986566;28;20432;-70
2024/03/11 05:46:35;;;;;;;8.33;7.40;;;;;;;6.10;73.34;94917.44;4981446;28;20213;-70
2024/03/11 05:49:05;;;;;;;10.37;8.73;;;;;;;6.23;73.25;94927.25;4986418;28;20267;-71
2024/03/11 05:51:31;;;;;;;11.23;7.87;;;;;;;6.15;73.08;94931.06;4976619;28;20271;-70
2024/03/11 05:54:00;;;;;;;8.23;7.43;;;;;;;6.38;72.54;94938.63;4987264;28;20931;-70
2024/03/11 05:56:27;;;;;;;8.50;7.70;;;;;;;6.32;72.20;94947.63;4982367;28;20456;-70
2024/03/11 05:58:53;;;;;;;8.60;7.40;;;;;;;6.26;72.14;94945.31;4987491;28;20927;-70
2024/03/11 06:01:20;;;;;;;8.03;7.30;;;;;;;6.21;72.36;94950.75;4986990;28;20436;-71
2024/03/11 06:03:46;;;;;;;8.13;7.33;;;;;;;6.21;72.23;94958.56;4988082;28;20485;-70
2024/03/11 06:06:11;;;;;;;8.40;7.50;;;;;;;6.29;72.20;94960.81;4987147;28;20460;-71
2024/03/11 06:08:37;;;;;;;10.53;7.80;;;;;;;6.36;72.12;94959.59;4983090;28;20188;-70
2024/03/11 06:11:05;;;;;;;8.50;7.70;;;;;;;6.33;72.48;94964.94;4988194;28;20189;-71
2024/03/11 06:13:31;;;;;;;9.70;8.70;;;;;;;6.07;73.15;94961.00;4987800;28;20523;-70
2024/03/11 06:15:56;;;;;;;8.70;7.90;;;;;;;5.99;73.71;94970.97;4988129;28;20474;-72
2024/03/11 06:18:22;;;;;;;9.27;8.27;;;;;;;6.31;72.88;94969.41;4987605;28;20183;-72
2024/03/11 06:20:48;;;;;;;9.33;8.40;;;;;;;6.28;73.28;94969.53;4983348;28;20181;-69
2024/03/11 06:23:13;;;;;;;10.73;8.57;;;;;;;6.49;72.82;94985.84;4981586;28;20440;-70
2024/03/11 06:25:40;;;;;;;9.53;8.50;;;;;;;6.60;72.34;94977.50;4985790;28;20211;-71
2024/03/11 06:28:06;;;;;;;10.07;8.80;;;;;;;6.62;72.17;94981.72;4968126;28;20213;-72
2024/03/11 06:30:33;;;;;;;15.60;9.33;;;;;;;6.51;72.37;94984.84;4985179;28;20491;-70
2024/03/11 06:32:59;;;;;;;13.50;11.40;;;;;;;6.62;72.77;94986.09;4983172;28;20192;-70
2024/03/11 06:35:25;;;;;;;22.63;12.40;;;;;;;6.66;72.27;94990.19;4996746;28;20451;-71
2024/03/11 06:37:50;;;;;;;17.17;10.20;;;;;;;6.68;71.98;94996.19;5001922;28;20411;-70
2024/03/11 06:40:21;;;;;;;12.03;9.97;;;;;;;6.79;71.72;94994.72;4988409;28;20183;-70
2024/03/11 06:42:48;;;;;;;10.90;9.77;;;;;;;6.82;72.01;94985.06;4997136;28;20172;-72
2024/03/11 06:45:15;;;;;;;10.80;9.10;;;;;;;6.89;71.44;94997.69;5004242;28;20961;-69
2024/03/11 06:47:41;;;;;;;17.07;8.67;;;;;;;6.90;71.95;94994.16;4983865;28;20519;-70
2024/03/11 06:50:07;;;;;;;9.73;6.37;;;;;;;8.77;89.32;94997.78;4988344;28;20522;-71
2024/03/11 06:52:33;;;;;;;10.00;8.13;;;;;;;9.31;67.29;94995.41;4981554;28;20475;-69
2024/03/11 06:54:59;;;;;;;9.57;6.90;;;;;;;8.10;67.79;95010.31;4981599;28;21021;-69
2024/03/11 06:57:24;;;;;;;9.33;8.23;;;;;;;7.59;69.38;95013.97;4982087;28;20249;-71
2024/03/11 06:59:50;;;;;;;7.93;7.13;;;;;;;7.37;70.51;95016.91;4984953;28;20641;-72
2024/03/11 07:02:20;;;;;;;7.50;6.80;;;;;;;7.24;71.35;95022.84;4983000;28;20267;-73
2024/03/11 07:04:46;;;;;;;9.30;7.13;;;;;;;7.25;71.42;95029.75;4984667;28;20291;-72
2024/03/11 07:07:12;;;;;;;13.13;8.10;;;;;;;7.12;71.16;95037.38;4984611;28;20525;-70
2024/03/11 07:09:38;;;;;;;9.50;7.80;;;;;;;7.19;71.82;95036.16;4982303;28;20432;-70
2024/03/11 07:12:03;;;;;;;8.13;7.33;;;;;;;7.11;72.14;95040.91;4978491;28;20425;-70
2024/03/11 07:14:29;;;;;;;8.47;7.47;;;;;;;7.02;71.82;95041.41;4980173;28;20188;-71
2024/03/11 07:16:54;;;;;;;10.67;8.07;;;;;;;7.15;72.05;95047.66;4983881;28;20169;-71
2024/03/11 07:19:25;;;;;;;7.83;6.60;;;;;;;7.19;72.12;95052.63;4985392;28;20180;-71
2024/03/11 07:21:51;;;;;;;7.53;6.80;;;;;;;7.22;71.42;95055.06;4985106;28;20176;-70
2024/03/11 07:24:18;;;;;;;8.37;7.53;;;;;;;7.38;72.26;95054.28;4983864;28;20435;-70
2024/03/11 07:26:44;;;;;;;9.10;7.37;;;;;;;7.52;71.58;95051.78;4992733;28;20263;-69
2024/03/11 07:29:11;;;;;;;8.60;6.83;;;;;;;7.83;69.67;95055.34;4983936;28;20435;-69
2024/03/11 07:31:38;;;;;;;7.60;6.90;;;;;;;8.42;67.97;95052.97;4980859;28;20466;-67
2024/03/11 07:34:04;;;;;;;10.20;7.47;;;;;;;10.40;62.15;95050.59;4981048;28;20454;-68
2024/03/11 07:36:29;;;;;;;10.70;6.90;;;;;;;11.40;57.62;95050.03;4984122;28;20459;-66
2024/03/11 07:38:55;;;;;;;7.50;6.70;;;;;;;12.10;55.51;95048.69;4990763;28;20432;-66
2024/03/11 07:41:20;;;;;;;8.33;7.43;;;;;;;12.52;54.54;95049.16;4989661;28;20183;-68
2024/03/11 07:43:46;;;;;;;7.10;5.93;;;;;;;12.67;52.94;95048.88;4989797;28;20224;-72
2024/03/11 07:46:11;;;;;;;9.10;7.17;;;;;;;12.22;54.23;95053.91;5004201;28;20303;-67
2024/03/11 07:48:39;;;;;;;7.63;6.40;;;;;;;11.72;55.79;95057.47;4996379;28;20327;-68
2024/03/11 07:51:05;;;;;;;6.87;6.27;;;;;;;10.84;57.77;95068.66;5002705;28;20180;-68
2024/03/11 07:53:30;;;;;;;9.43;6.30;;;;;;;10.63;58.91;95076.19;4990087;28;20545;-68
2024/03/11 07:55:56;;;;;;;10.13;6.30;;;;;;;10.48;58.89;95082.41;4996330;28;20939;-69
2024/03/11 07:58:22;;;;;;;7.20;6.00;;;;;;;10.74;58.46;95088.56;5000154;28;20248;-68
2024/03/11 08:00:48;;;;;;;7.30;6.60;;;;;;;11.32;57.25;95073.38;4997652;28;20657;-68
2024/03/11 08:03:14;;;;;;;6.73;6.13;;;;;;;11.80;54.95;95084.06;4995657;28;20449;-68
2024/03/11 08:05:40;;;;;;;6.63;5.90;;;;;;;12.62;53.51;95073.88;4998577;28;21115;-69
2024/03/11 08:08:08;;;;;;;6.83;6.23;;;;;;;13.13;51.60;95068.28;4991330;28;20204;-67
2024/03/11 08:10:34;;;;;;;7.50;6.60;;;;;;;13.65;50.54;95074.06;4990496;28;20173;-67
2024/03/11 08:13:00;;;;;;;7.67;6.90;;;;;;;14.17;49.42;95073.47;4990170;28;20466;-68
2024/03/11 08:15:26;;;;;;;9.07;6.50;;;;;;;14.29;49.09;95070.78;4991323;28;20526;-68
2024/03/11 08:17:52;;;;;;;10.77;6.50;;;;;;;14.46;48.58;95074.75;4979636;28;20173;-68
2024/03/11 08:20:20;;;;;;;7.67;6.83;;;;;;;14.75;47.88;95075.03;4989653;28;20173;-69
2024/03/11 08:22:54;;;;;;;10.60;6.70;;;;;;;14.91;47.56;95075.47;4992810;28;20423;-69
2024/03/11 08:25:22;;;;;;;7.23;6.30;;;;;;;14.85;47.54;95073.31;4990301;28;20443;-69
2024/03/11 08:27:52;;;;;;;11.40;7.30;;;;;;;15.12;46.77;95082.56;4989202;28;20460;-70
2024/03/11 08:30:17;;;;;;;10.50;6.70;;;;;;;15.05;46.49;95079.63;4993196;28;20818;-68
2024/03/11 08:32:43;;;;;;;9.70;6.30;;;;;;;15.21;46.63;95080.03;4992431;28;20493;-69
2024/03/11 08:35:11;;;;;;;8.60;5.53;;;;;;;15.45;45.61;95089.50;4991272;28;20215;-69
2024/03/11 08:37:36;;;;;;;7.60;6.47;;;;;;;15.83;45.45;95090.72;4991519;28;20702;-69
2024/03/11 08:40:04;;;;;;;16.27;7.27;;;;;;;16.05;44.88;95090.53;4993690;28;20451;-69
2024/03/11 08:42:29;;;;;;;15.40;6.90;;;;;;;16.03;44.66;95102.22;4994742;28;20184;-71
2024/03/11 08:44:55;;;;;;;10.53;5.23;;;;;;;16.03;44.51;95100.41;4994887;28;20775;-68
2024/03/11 08:47:23;;;;;;;11.40;5.67;;;;;;;16.27;43.74;95102.72;4993863;28;20334;-69
2024/03/11 08:49:49;;;;;;;7.40;5.63;;;;;;;16.22;43.29;95112.88;4988234;28;20416;-70
2024/03/11 08:52:15;;;;;;;8.33;4.80;;;;;;;16.10;43.70;95111.31;4987079;28;20459;-69
2024/03/11 08:54:42;;;;;;;11.20;5.70;;;;;;;16.30;43.69;95112.25;4987934;28;20531;-69
2024/03/11 08:57:12;;;;;;;6.77;3.90;;;;;;;16.04;43.86;95110.03;4988310;28;20537;-68
2024/03/11 08:59:38;;;;;;;6.40;4.30;;;;;;;16.09;44.07;95115.78;4988303;28;20431;-67
2024/03/11 09:02:05;;;;;;;5.23;4.07;;;;;;;16.25;43.61;95111.78;4988053;28;20412;-68
2024/03/11 09:04:30;;;;;;;4.17;3.60;;;;;;;16.25;43.55;95112.66;4988296;28;20823;-70
2024/03/11 09:06:59;;;;;;;13.17;5.00;;;;;;;16.30;43.70;95109.59;4988464;28;20460;-69
2024/03/11 09:09:24;;;;;;;5.13;4.63;;;;;;;15.95;43.40;95121.41;4998794;28;20224;-69
2024/03/11 09:12:00;;;;;;;4.57;3.47;;;;;;;16.42;43.30;95121.75;4988199;28;20436;-68
2024/03/11 09:14:28;;;;;;;6.40;3.97;;;;;;;16.28;42.51;95122.97;4984871;28;20185;-69
2024/03/11 09:16:54;;;;;;;4.63;3.60;;;;;;;15.27;44.62;95117.47;4986821;28;20753;-67
2024/03/11 09:19:21;;;;;;;4.30;3.23;;;;;;;15.26;45.56;95127.22;4984401;28;20487;-68
2024/03/11 09:21:47;;;;;;;6.30;3.10;;;;;;;15.67;44.96;95121.09;4973991;28;20467;-69
2024/03/11 09:24:12;;;;;;;5.17;3.60;;;;;;;15.86;43.86;95122.19;4980695;28;20428;-70
2024/03/11 09:26:38;;;;;;;3.37;3.07;;;;;;;16.13;43.46;95129.56;4981842;28;20475;-68
2024/03/11 09:29:03;;;;;;;4.27;3.40;;;;;;;15.73;44.94;95127.72;4982225;28;20184;-68
2024/03/11 09:31:29;;;;;;;4.23;3.70;;;;;;;15.92;43.54;95120.81;4983588;28;20172;-69
2024/03/11 09:33:54;;;;;;;2.87;2.30;;;;;;;16.23;43.41;95130.47;4984216;28;20383;-69
2024/03/11 09:36:20;;;;;;;3.47;3.03;;;;;;;16.06;43.23;95131.06;4977962;28;20223;-69
2024/03/11 09:38:45;;;;;;;8.87;3.93;;;;;;;16.30;42.67;95131.59;4975930;28;20182;-68
2024/03/11 09:41:15;;;;;;;4.30;3.23;;;;;;;16.17;42.68;95141.56;4983422;28;20919;-69
2024/03/11 09:43:48;;;;;;;7.70;3.50;;;;;;;16.20;43.33;95130.69;4995350;28;20631;-67
2024/03/11 09:46:23;;;;;;;6.67;3.50;;;;;;;16.12;42.55;95138.47;4981455;28;20494;-68
2024/03/11 09:48:53;;;;;;;3.70;3.40;;;;;;;16.44;42.31;95137.47;4979209;28;20904;-69
2024/03/11 09:51:21;;;;;;;4.77;2.87;;;;;;;16.44;42.48;95133.06;4981814;28;20438;-69
2024/03/11 09:53:52;;;;;;;7.63;2.90;;;;;;;16.64;42.57;95131.28;4968899;28;20436;-69
2024/03/11 09:56:22;;;;;;;4.63;2.47;;;;;;;16.50;42.40;95115.78;4983444;28;20451;-68
2024/03/11 09:58:55;;;;;;;6.90;3.10;;;;;;;16.96;41.49;95108.22;4984195;28;20428;-68
2024/03/11 10:01:24;;;;;;;4.90;3.20;;;;;;;16.95;41.45;95107.38;4979102;28;20467;-69
2024/03/11 10:03:50;;;;;;;6.93;3.10;;;;;;;17.04;41.54;95103.91;4981666;28;20464;-68
2024/03/11 10:06:16;;;;;;;6.07;2.43;;;;;;;17.03;41.56;95104.91;4969292;28;20606;-68
2024/03/11 10:08:45;;;;;;;5.70;2.97;;;;;;;17.17;40.57;95100.16;4981256;28;20813;-69
2024/03/11 10:11:20;;;;;;;4.37;3.10;;;;;;;16.86;41.35;95098.44;4986251;28;20169;-69
2024/03/11 10:13:47;;;;;;;7.57;2.77;;;;;;;17.01;41.41;95098.03;4973674;28;20874;-67
2024/03/11 10:16:31;;;;;;;3.83;2.80;;;;;;;17.05;40.00;95094.97;4982183;28;20455;-68
2024/03/11 10:19:02;;;;;;;5.87;2.57;;;;;;;16.93;40.37;95088.13;4981688;28;20442;-67
2024/03/11 10:21:28;;;;;;;11.00;3.50;;;;;;;16.98;40.48;95083.25;4984646;28;20436;-69
2024/03/11 10:23:58;;;;;;;6.40;2.80;;;;;;;16.76;41.65;95071.06;4982106;28;20440;-68
2024/03/11 10:26:33;;;;;;;5.30;2.50;;;;;;;16.95;40.50;95080.88;4976963;28;20472;-69
2024/03/11 10:29:00;;;;;;;2.50;1.90;;;;;;;17.03;40.46;95078.41;4972888;28;20431;-69
2024/03/11 10:31:33;;;;;;;2.73;2.10;;;;;;;17.10;40.19;95079.50;4981778;28;20434;-68
2024/03/11 10:34:20;;;;;;;13.83;4.00;;;;;;;17.04;40.74;95076.56;4980224;28;20436;-69
2024/03/11 10:36:47;;;;;;;13.53;3.50;;;;;;;17.15;40.09;95081.75;4967190;28;20436;-69
2024/03/11 10:41:50;;;;;;;5.03;2.53;;;;;;;17.17;40.76;95065.69;4973729;28;20470;-68
2024/03/11 10:44:19;;;;;;;3.47;2.50;;;;;;;16.81;40.85;95065.41;4986520;28;20526;-69
2024/03/11 10:46:44;;;;;;;2.43;2.23;;;;;;;16.96;40.53;95066.69;4995786;28;20458;-67
2024/03/11 10:49:12;;;;;;;6.30;2.67;;;;;;;17.07;39.95;95065.69;4994577;28;20495;-67
2024/03/11 10:51:47;;;;;;;22.37;4.87;;;;;;;17.11;40.15;95067.91;4985907;28;20630;-68
2024/03/11 10:54:23;;;;;;;11.00;3.57;;;;;;;17.25;40.13;95065.84;4990809;28;20438;-68
2024/03/11 10:56:55;;;;;;;4.57;3.40;;;;;;;17.25;39.75;95071.13;4989986;28;20442;-67
2024/03/11 10:59:22;;;;;;;4.57;2.03;;;;;;;17.39;40.59;95064.56;4980909;28;20446;-68
2024/03/11 11:01:58;;;;;;;4.70;2.47;;;;;;;17.04;40.88;95073.94;4981014;28;20486;-68
2024/03/11 11:04:33;;;;;;;4.10;2.23;;;;;;;17.05;40.63;95065.00;4997699;28;20875;-68
2024/03/11 11:06:59;;;;;;;2.87;2.33;;;;;;;16.99;40.62;95058.44;5000503;28;20591;-68
2024/03/11 11:09:27;;;;;;;16.63;4.20;;;;;;;17.23;40.87;95065.13;4972831;28;20467;-68
2024/03/11 11:11:54;;;;;;;5.60;2.40;;;;;;;16.88;40.23;95062.06;4977862;28;20451;-68
2024/03/11 11:14:27;;;;;;;6.43;2.87;;;;;;;17.12;39.92;95064.28;4983762;28;20634;-68
2024/03/11 11:16:55;;;;;;;4.00;2.47;;;;;;;17.28;39.78;95058.41;4981103;28;20442;-67
2024/03/11 11:19:24;;;;;;;11.50;2.70;;;;;;;17.43;39.69;95066.75;4993029;28;20415;-68
2024/03/11 11:21:51;;;;;;;8.27;2.40;;;;;;;17.42;38.67;95075.72;4982028;28;20448;-68
2024/03/11 11:24:30;;;;;;;26.57;4.13;;;;;;;17.34;38.45;95078.25;4986417;28;20442;-66
2024/03/11 11:27:01;;;;;;;10.60;2.67;;;;;;;17.24;38.44;95070.28;4976543;28;20465;-67
2024/03/11 11:29:27;;;;;;;3.07;2.30;;;;;;;17.19;38.39;95075.16;4978319;28;20440;-67
2024/03/11 11:31:59;;;;;;;3.60;1.70;;;;;;;17.03;37.87;95086.34;4980254;28;20429;-69
2024/03/11 11:34:44;;;;;;;5.80;1.80;;;;;;;17.12;37.73;95089.97;4982218;28;20708;-69
2024/03/11 11:37:19;;;;;;;9.03;2.40;;;;;;;17.18;38.26;95086.75;4996918;28;20423;-68
2024/03/11 11:39:45;;;;;;;10.13;2.53;;;;;;;17.02;38.84;95089.97;4996677;28;20511;-71